Time;durP1;ratioP1;P1;durP2;ratioP2;P2;SDS_P1;SDS_P2;PMS_P1;PMS_P2;Temp;Humidity;BMP_temperature;BMP_pressure;BME280_temperature;BME280_humidity;BME280_pressure;Samples;Min_cycle;Max_cycle;Signal;HPM_P1;HPM_P2
2022/03/02 00:02:16;;;;;;;19.57;12.27;;;7.50;1.00;;;;;;5024488;28;20822;-56
2022/03/02 00:04:43;;;;;;;20.17;11.63;;;7.50;99.90;;;;;;5022762;28;20617;-55
2022/03/02 00:07:10;;;;;;;19.63;11.87;;;7.40;1.00;;;;;;5029487;28;20648;-57
2022/03/02 00:09:38;;;;;;;17.37;12.03;;;7.40;99.90;;;;;;5023744;28;20246;-56
2022/03/02 00:12:05;;;;;;;19.97;12.13;;;7.30;99.90;;;;;;5020498;28;20619;-56
2022/03/02 00:14:31;;;;;;;23.10;11.77;;;7.40;99.90;;;;;;5022380;28;20637;-54
2022/03/02 00:16:58;;;;;;;18.97;11.60;;;7.30;99.90;;;;;;5022685;28;20637;-58
2022/03/02 00:19:25;;;;;;;18.90;12.03;;;7.30;99.90;;;;;;5019375;28;20617;-55
2022/03/02 00:21:52;;;;;;;19.43;11.77;;;7.20;99.90;;;;;;5024744;28;20617;-54
2022/03/02 00:24:20;;;;;;;18.73;11.90;;;7.20;99.90;;;;;;5013439;28;20660;-54
2022/03/02 00:26:47;;;;;;;15.63;11.23;;;7.30;99.90;;;;;;5011119;28;20218;-55
2022/03/02 00:29:14;;;;;;;19.43;11.80;;;7.20;99.90;;;;;;5011417;28;20643;-56
2022/03/02 00:31:41;;;;;;;20.80;11.57;;;7.30;99.90;;;;;;5016156;28;20301;-53
2022/03/02 00:34:08;;;;;;;21.63;10.77;;;7.10;99.90;;;;;;5029090;28;20211;-55
2022/03/02 00:36:35;;;;;;;18.00;11.70;;;7.20;99.90;;;;;;5021607;28;20205;-54
2022/03/02 00:39:02;;;;;;;20.40;11.93;;;7.20;99.90;;;;;;5027586;28;20866;-55
2022/03/02 00:41:29;;;;;;;19.90;11.23;;;7.10;99.90;;;;;;5026739;28;20620;-55
2022/03/02 00:43:56;;;;;;;18.73;11.87;;;7.10;99.90;;;;;;5026940;28;20203;-54
2022/03/02 00:46:29;;;;;;;18.73;11.37;;;7.10;99.90;;;;;;5016818;28;20322;-54
2022/03/02 00:48:57;;;;;;;18.23;10.57;;;7.00;99.90;;;;;;5021775;28;20242;-54
2022/03/02 00:51:25;;;;;;;21.20;12.33;;;7.00;99.90;;;;;;5018766;28;20649;-54
2022/03/02 00:53:52;;;;;;;20.53;12.07;;;7.00;99.90;;;;;;5016842;28;20279;-54
2022/03/02 00:56:20;;;;;;;19.27;11.83;;;7.00;99.90;;;;;;5018983;28;22024;-58
2022/03/02 00:58:48;;;;;;;16.67;10.47;;;7.00;99.90;;;;;;5023408;28;20671;-56
2022/03/02 01:01:16;;;;;;;18.43;11.70;;;7.00;99.90;;;;;;5023809;28;20235;-56
2022/03/02 01:03:43;;;;;;;15.60;11.70;;;7.00;99.90;;;;;;5022144;28;20215;-55
2022/03/02 01:06:10;;;;;;;16.87;11.23;;;7.10;99.90;;;;;;5024205;28;20221;-56
2022/03/02 01:08:38;;;;;;;19.70;11.80;;;7.00;99.90;;;;;;5024770;28;20237;-56
2022/03/02 01:11:05;;;;;;;17.10;11.17;;;7.00;99.90;;;;;;5025459;28;20307;-53
2022/03/02 01:13:32;;;;;;;18.57;10.93;;;7.10;99.90;;;;;;5028341;28;20200;-55
2022/03/02 01:15:59;;;;;;;21.17;12.07;;;7.10;99.90;;;;;;5029523;28;20614;-56
2022/03/02 01:18:26;;;;;;;18.27;11.23;;;7.10;99.90;;;;;;5032826;28;20204;-56
2022/03/02 01:20:53;;;;;;;18.50;11.67;;;7.10;99.90;;;;;;5030149;28;20752;-55
2022/03/02 01:23:20;;;;;;;18.97;11.13;;;7.10;99.90;;;;;;5034018;28;20536;-55
2022/03/02 01:25:47;;;;;;;16.83;10.83;;;7.10;99.90;;;;;;5032494;28;20622;-54
2022/03/02 01:28:14;;;;;;;18.53;11.73;;;7.10;99.90;;;;;;5028171;28;20217;-55
2022/03/02 01:30:41;;;;;;;19.37;11.13;;;7.10;99.90;;;;;;5026287;28;20250;-59
2022/03/02 01:33:08;;;;;;;18.90;11.07;;;7.00;99.90;;;;;;5026179;28;20211;-55
2022/03/02 01:35:35;;;;;;;16.37;10.67;;;7.10;99.90;;;;;;5033614;28;20210;-54
2022/03/02 01:38:02;;;;;;;16.53;10.20;;;7.10;99.90;;;;;;5022465;28;20661;-55
2022/03/02 01:40:29;;;;;;;16.73;10.70;;;7.00;99.90;;;;;;5031146;28;20211;-54
2022/03/02 01:42:55;;;;;;;17.33;10.50;;;7.00;99.90;;;;;;5034471;28;20211;-56
2022/03/02 01:45:23;;;;;;;17.97;10.00;;;7.10;99.90;;;;;;5032750;28;20311;-54
2022/03/02 01:47:49;;;;;;;16.63;10.30;;;7.10;99.90;;;;;;5029410;28;20204;-57
2022/03/02 01:50:17;;;;;;;15.63;10.67;;;7.00;99.90;;;;;;5032762;28;20275;-54
2022/03/02 01:52:45;;;;;;;17.23;10.43;;;6.90;99.90;;;;;;5032302;28;20399;-55
2022/03/02 01:55:13;;;;;;;17.50;10.37;;;7.00;99.90;;;;;;5034011;28;20254;-54
2022/03/02 01:57:41;;;;;;;18.93;10.77;;;7.00;99.90;;;;;;5029456;28;20729;-56
2022/03/02 02:00:12;;;;;;;18.10;10.93;;;7.10;99.90;;;;;;5030561;28;20275;-55
2022/03/02 02:02:40;;;;;;;16.23;11.50;;;7.10;99.90;;;;;;5029907;28;20206;-55
2022/03/02 02:05:07;;;;;;;16.37;10.23;;;7.10;99.90;;;;;;5035250;28;20197;-55
2022/03/02 02:07:35;;;;;;;17.40;9.87;;;7.10;99.90;;;;;;5028685;28;20224;-54
2022/03/02 02:10:05;;;;;;;18.03;10.20;;;7.00;99.90;;;;;;5026076;28;20335;-55
2022/03/02 02:12:33;;;;;;;19.00;10.00;;;6.90;99.90;;;;;;5015612;28;20235;-55
2022/03/02 02:15:02;;;;;;;18.03;10.17;;;6.90;99.90;;;;;;5027966;28;20208;-54
2022/03/02 02:17:29;;;;;;;17.60;10.40;;;6.90;99.90;;;;;;5029370;28;20208;-54
2022/03/02 02:19:56;;;;;;;16.97;10.57;;;6.90;99.90;;;;;;5027040;28;20239;-56
2022/03/02 02:22:23;;;;;;;13.40;9.90;;;6.90;99.90;;;;;;5034131;28;20203;-54
2022/03/02 02:24:50;;;;;;;16.20;10.20;;;6.90;99.90;;;;;;5023618;28;20200;-57
2022/03/02 02:27:17;;;;;;;16.60;10.23;;;6.80;99.90;;;;;;5025523;28;20271;-56
2022/03/02 02:29:47;;;;;;;13.87;9.80;;;6.80;99.90;;;;;;5024042;28;20205;-54
2022/03/02 02:32:14;;;;;;;16.03;10.23;;;6.80;99.90;;;;;;5025268;28;20296;-54
2022/03/02 02:34:41;;;;;;;15.63;9.93;;;6.90;99.90;;;;;;5026642;28;20195;-53
2022/03/02 02:37:08;;;;;;;15.63;10.67;;;6.90;99.90;;;;;;5029532;28;20211;-54
2022/03/02 02:39:36;;;;;;;17.93;10.67;;;6.80;99.90;;;;;;5026443;28;20691;-53
2022/03/02 02:42:08;;;;;;;19.27;10.40;;;6.80;99.90;;;;;;5024224;28;20813;-55
2022/03/02 02:44:36;;;;;;;16.93;10.70;;;6.70;99.90;;;;;;5023355;28;20208;-54
2022/03/02 02:47:04;;;;;;;16.67;10.33;;;6.80;99.90;;;;;;5022371;28;20217;-56
2022/03/02 02:49:30;;;;;;;16.67;10.73;;;6.80;99.90;;;;;;5025417;28;20239;-56
2022/03/02 02:51:57;;;;;;;15.47;9.70;;;6.80;99.90;;;;;;5027363;28;20547;-56
2022/03/02 02:54:24;;;;;;;14.60;10.00;;;6.80;99.90;;;;;;5028127;28;20270;-55
2022/03/02 02:56:51;;;;;;;16.23;10.13;;;6.70;99.90;;;;;;5028283;28;21956;-57
2022/03/02 02:59:18;;;;;;;15.40;10.53;;;6.70;99.90;;;;;;5026316;28;20208;-55
2022/03/02 03:01:45;;;;;;;21.67;10.53;;;6.70;99.90;;;;;;5028002;28;20205;-55
2022/03/02 03:04:13;;;;;;;16.40;9.90;;;6.70;99.90;;;;;;5027278;28;20561;-56
2022/03/02 03:06:40;;;;;;;14.10;9.90;;;6.70;99.90;;;;;;5028490;28;20215;-56
2022/03/02 03:09:07;;;;;;;16.37;10.50;;;6.70;99.90;;;;;;5021324;28;20260;-57
2022/03/02 03:11:38;;;;;;;20.77;10.80;;;6.80;99.90;;;;;;5016509;28;20197;-55
2022/03/02 03:14:13;;;;;;;16.33;9.87;;;6.80;99.90;;;;;;5026804;28;20203;-55
2022/03/02 03:16:41;;;;;;;15.07;9.90;;;6.80;99.90;;;;;;5029056;28;20493;-56
2022/03/02 03:19:08;;;;;;;16.97;10.13;;;6.80;99.90;;;;;;5027682;28;20325;-55
2022/03/02 03:21:35;;;;;;;16.67;10.97;;;6.80;99.90;;;;;;5028285;28;20201;-56
2022/03/02 03:24:02;;;;;;;17.00;10.10;;;6.70;99.90;;;;;;5029423;28;20217;-60
2022/03/02 03:26:31;;;;;;;17.63;10.70;;;6.70;99.90;;;;;;5014411;28;20711;-56
2022/03/02 03:28:58;;;;;;;17.77;10.30;;;6.70;99.90;;;;;;5024876;28;20204;-55
2022/03/02 03:31:25;;;;;;;17.07;9.90;;;6.60;99.90;;;;;;5026445;28;20279;-57
2022/03/02 03:33:52;;;;;;;16.03;9.80;;;6.70;99.90;;;;;;5023805;28;20319;-56
2022/03/02 03:36:18;;;;;;;15.47;9.10;;;6.60;99.90;;;;;;5029101;28;20302;-56
2022/03/02 03:38:45;;;;;;;18.00;10.37;;;6.50;99.90;;;;;;5027219;28;20210;-55
2022/03/02 03:41:12;;;;;;;14.63;9.60;;;6.60;99.90;;;;;;5023180;28;20211;-55
2022/03/02 03:43:39;;;;;;;15.97;10.73;;;6.50;99.90;;;;;;5020653;28;20259;-58
2022/03/02 03:46:06;;;;;;;14.80;9.00;;;6.50;99.90;;;;;;5023990;28;20239;-57
2022/03/02 03:48:33;;;;;;;15.97;10.13;;;6.50;99.90;;;;;;5022215;28;20689;-55
2022/03/02 03:51:00;;;;;;;18.17;10.20;;;6.40;99.90;;;;;;5027764;28;20623;-56
2022/03/02 03:53:27;;;;;;;17.33;10.63;;;6.30;99.90;;;;;;5024608;28;20206;-55
2022/03/02 03:55:54;;;;;;;17.23;9.97;;;6.20;99.90;;;;;;5024666;28;20230;-54
2022/03/02 03:58:21;;;;;;;17.37;9.77;;;6.10;99.90;;;;;;5021753;28;20200;-53
2022/03/02 04:00:48;;;;;;;15.83;9.57;;;6.20;99.90;;;;;;5025753;28;20206;-57
2022/03/02 04:03:15;;;;;;;17.63;9.63;;;6.20;99.90;;;;;;5022341;28;20299;-53
2022/03/02 04:05:42;;;;;;;15.30;10.17;;;6.10;99.90;;;;;;5029580;28;20570;-54
2022/03/02 04:08:09;;;;;;;15.30;10.27;;;6.10;99.90;;;;;;5025063;28;20262;-54
2022/03/02 04:10:36;;;;;;;15.47;9.07;;;6.00;99.90;;;;;;5029485;28;20234;-54
2022/03/02 04:13:03;;;;;;;16.80;10.30;;;6.00;99.90;;;;;;5024803;28;20242;-54
2022/03/02 04:15:30;;;;;;;16.87;10.00;;;6.00;99.90;;;;;;5024691;28;20239;-57
2022/03/02 04:17:57;;;;;;;17.17;11.13;;;6.00;99.90;;;;;;5028022;28;20197;-54
2022/03/02 04:20:24;;;;;;;17.00;10.57;;;6.00;99.90;;;;;;5029841;28;20212;-56
2022/03/02 04:22:52;;;;;;;17.10;10.83;;;6.00;99.90;;;;;;5028069;28;20210;-55
2022/03/02 04:25:18;;;;;;;17.20;9.63;;;6.10;99.90;;;;;;5021169;28;20235;-57
2022/03/02 04:27:45;;;;;;;15.83;10.10;;;6.10;99.90;;;;;;5027735;28;20211;-54
2022/03/02 04:30:13;;;;;;;17.67;10.43;;;6.00;99.90;;;;;;5028251;28;20243;-54
2022/03/02 04:32:40;;;;;;;17.50;10.33;;;5.90;99.90;;;;;;5027516;28;20205;-55
2022/03/02 04:35:09;;;;;;;17.83;10.87;;;5.90;99.90;;;;;;5020719;28;20203;-54
2022/03/02 04:37:37;;;;;;;21.97;10.47;;;6.00;99.90;;;;;;5031312;28;20219;-55
2022/03/02 04:40:07;;;;;;;15.13;10.13;;;6.00;99.90;;;;;;5028637;28;20319;-54
2022/03/02 04:42:34;;;;;;;16.57;10.60;;;6.00;99.90;;;;;;5028629;28;20750;-56
2022/03/02 04:45:02;;;;;;;17.30;10.90;;;5.90;99.90;;;;;;5024817;28;20236;-55
2022/03/02 04:47:29;;;;;;;18.70;11.00;;;5.90;99.90;;;;;;5025563;28;20232;-54
2022/03/02 04:49:56;;;;;;;13.57;9.60;;;5.90;99.90;;;;;;5027755;28;20308;-53
2022/03/02 04:52:23;;;;;;;20.33;11.57;;;5.90;99.90;;;;;;5029990;28;20239;-56
2022/03/02 04:55:09;;;;;;;14.77;9.80;;;5.90;99.90;;;;;;5027265;28;20752;-56
2022/03/02 04:57:43;;;;;;;16.93;10.27;;;6.00;99.90;;;;;;5030139;28;20202;-54
2022/03/02 05:00:25;;;;;;;15.80;10.10;;;5.90;99.90;;;;;;5027233;28;20209;-53
2022/03/02 05:02:59;;;;;;;14.30;9.97;;;5.80;99.90;;;;;;5029881;28;20236;-54
2022/03/02 05:05:27;;;;;;;17.43;10.93;;;5.70;99.90;;;;;;5030374;28;20207;-55
2022/03/02 05:07:54;;;;;;;21.20;10.90;;;5.70;99.90;;;;;;5027094;28;20283;-54
2022/03/02 05:10:22;;;;;;;17.83;10.13;;;5.70;99.90;;;;;;5023421;28;20712;-54
2022/03/02 05:12:50;;;;;;;17.93;10.83;;;5.60;99.90;;;;;;5030074;28;20662;-56
2022/03/02 05:15:19;;;;;;;17.97;10.67;;;5.60;99.90;;;;;;5025212;28;20681;-55
2022/03/02 05:17:46;;;;;;;16.97;11.30;;;5.60;99.90;;;;;;5025262;28;20260;-55
2022/03/02 05:20:15;;;;;;;17.83;10.33;;;5.50;99.90;;;;;;5023504;28;20278;-54
2022/03/02 05:22:43;;;;;;;20.80;10.57;;;5.40;99.90;;;;;;5028785;28;20541;-54
2022/03/02 05:25:12;;;;;;;15.80;9.70;;;5.40;99.90;;;;;;5033361;28;20206;-54
2022/03/02 05:27:40;;;;;;;15.23;10.73;;;5.40;99.90;;;;;;5028090;28;20767;-56
2022/03/02 05:30:09;;;;;;;15.73;9.93;;;5.50;99.90;;;;;;5028071;28;20661;-54
2022/03/02 05:32:37;;;;;;;16.50;9.87;;;5.40;99.90;;;;;;5034772;28;20253;-53
2022/03/02 05:35:05;;;;;;;14.73;10.03;;;5.40;99.90;;;;;;5026639;28;20550;-54
2022/03/02 05:37:32;;;;;;;15.23;10.10;;;5.40;99.90;;;;;;5033803;28;20288;-56
2022/03/02 05:40:00;;;;;;;13.23;9.07;;;5.50;99.90;;;;;;5026793;28;20724;-55
2022/03/02 05:42:27;;;;;;;19.50;9.67;;;5.40;99.90;;;;;;5029125;28;20230;-55
2022/03/02 05:44:54;;;;;;;15.63;10.03;;;5.50;99.90;;;;;;5028186;28;22414;-56
2022/03/02 05:47:21;;;;;;;17.90;10.27;;;5.60;99.90;;;;;;5029900;28;20292;-56
2022/03/02 05:49:47;;;;;;;18.37;10.30;;;5.60;99.90;;;;;;5029856;28;20258;-54
2022/03/02 05:52:14;;;;;;;18.60;10.73;;;5.60;99.90;;;;;;5030810;28;20216;-55
2022/03/02 05:54:41;;;;;;;15.90;9.90;;;5.70;99.90;;;;;;5031290;28;20263;-56
2022/03/02 05:57:08;;;;;;;18.30;10.23;;;5.60;99.90;;;;;;5030397;28;20674;-55
2022/03/02 05:59:36;;;;;;;17.10;10.40;;;5.60;99.90;;;;;;5027829;28;20228;-63
2022/03/02 06:02:03;;;;;;;15.50;9.80;;;5.50;99.90;;;;;;5020253;28;20674;-57
2022/03/02 06:04:33;;;;;;;19.17;9.83;;;5.40;99.90;;;;;;5028737;28;20690;-55
2022/03/02 06:06:59;;;;;;;15.67;10.00;;;5.40;99.90;;;;;;5025888;28;20692;-55
2022/03/02 06:09:27;;;;;;;14.80;9.67;;;5.40;99.90;;;;;;5029730;28;20411;-56
2022/03/02 06:11:54;;;;;;;16.03;9.27;;;5.40;99.90;;;;;;5017918;28;20216;-56
2022/03/02 06:14:21;;;;;;;15.63;9.73;;;5.40;99.90;;;;;;5028282;28;20208;-55
2022/03/02 06:16:48;;;;;;;15.93;9.77;;;5.40;99.90;;;;;;5028428;28;20553;-54
2022/03/02 06:19:15;;;;;;;15.50;10.23;;;5.30;99.90;;;;;;5026603;28;20222;-56
2022/03/02 06:21:44;;;;;;;16.47;9.83;;;5.20;99.90;;;;;;5026790;28;20222;-55
2022/03/02 06:24:14;;;;;;;15.60;8.93;;;5.20;99.90;;;;;;5030307;28;20915;-53
2022/03/02 06:26:41;;;;;;;19.07;10.30;;;5.20;99.90;;;;;;5030344;28;20307;-55
2022/03/02 06:29:08;;;;;;;16.83;9.83;;;5.30;99.90;;;;;;5028651;28;20299;-54
2022/03/02 06:31:35;;;;;;;15.53;9.20;;;5.30;99.90;;;;;;5027140;28;20197;-55
2022/03/02 06:34:02;;;;;;;16.47;9.70;;;5.20;99.90;;;;;;5023422;28;20952;-56
2022/03/02 06:36:29;;;;;;;19.63;9.97;;;5.10;99.90;;;;;;5029038;28;20626;-55
2022/03/02 06:38:56;;;;;;;15.57;9.63;;;5.10;99.90;;;;;;5027749;28;20366;-55
2022/03/02 06:41:53;;;;;;;14.93;9.30;;;5.10;99.90;;;;;;5027613;28;20203;-54
2022/03/02 06:44:38;;;;;;;16.83;10.23;;;5.00;99.90;;;;;;5027307;28;20262;-54
2022/03/02 06:47:12;;;;;;;14.00;8.80;;;5.00;99.90;;;;;;5023317;28;20316;-54
2022/03/02 06:49:56;;;;;;;17.13;10.43;;;5.00;99.90;;;;;;5023948;28;20660;-55
2022/03/02 06:52:27;;;;;;;17.63;9.73;;;5.10;99.90;;;;;;5025878;28;20685;-56
2022/03/02 06:54:56;;;;;;;18.43;9.40;;;5.00;99.90;;;;;;5025212;28;20352;-54
2022/03/02 06:57:28;;;;;;;14.57;9.63;;;5.00;99.90;;;;;;5027844;28;20213;-55
2022/03/02 07:00:01;;;;;;;17.93;10.07;;;5.00;99.90;;;;;;5024189;28;20659;-57
2022/03/02 07:02:49;;;;;;;14.17;9.33;;;5.00;99.90;;;;;;5017814;28;20201;-55
2022/03/02 07:05:17;;;;;;;20.10;10.30;;;5.00;99.90;;;;;;5024064;28;20459;-54
2022/03/02 07:07:45;;;;;;;14.63;8.77;;;5.10;99.90;;;;;;5028236;28;22191;-58
2022/03/02 07:10:12;;;;;;;19.00;9.10;;;5.10;99.90;;;;;;5024448;28;20229;-53
2022/03/02 07:12:40;;;;;;;15.07;9.07;;;5.10;99.90;;;;;;5029461;28;20258;-54
2022/03/02 07:15:08;;;;;;;17.73;10.37;;;5.20;99.90;;;;;;5022893;28;20270;-55
2022/03/02 07:17:35;;;;;;;18.50;9.90;;;5.20;99.90;;;;;;5023291;28;20207;-53
2022/03/02 07:20:10;;;;;;;15.43;9.20;;;5.20;99.90;;;;;;5022160;28;20653;-55
2022/03/02 07:22:43;;;;;;;17.60;10.73;;;5.40;99.90;;;;;;5027487;28;20231;-56
2022/03/02 07:25:19;;;;;;;14.87;9.60;;;5.40;99.90;;;;;;5025793;28;20219;-55
2022/03/02 07:27:45;;;;;;;15.43;9.10;;;5.30;99.90;;;;;;5024230;28;20235;-55
2022/03/02 07:30:13;;;;;;;17.70;9.73;;;5.30;99.90;;;;;;5017715;28;20258;-54
2022/03/02 07:32:42;;;;;;;16.37;9.07;;;5.40;99.90;;;;;;5022527;28;20196;-56
2022/03/02 07:35:09;;;;;;;17.27;9.37;;;5.40;99.90;;;;;;5027295;28;20706;-55
2022/03/02 07:37:38;;;;;;;16.07;8.47;;;5.50;99.90;;;;;;5030725;28;20206;-55
2022/03/02 07:40:07;;;;;;;13.97;9.63;;;5.60;99.90;;;;;;5022841;28;20569;-55
2022/03/02 07:42:34;;;;;;;15.07;9.37;;;5.70;99.90;;;;;;5029565;28;20325;-56
2022/03/02 07:45:01;;;;;;;15.83;9.23;;;5.70;99.90;;;;;;5030648;28;20211;-57
2022/03/02 07:47:28;;;;;;;16.00;9.63;;;5.70;99.90;;;;;;5030986;28;20922;-61
2022/03/02 07:49:55;;;;;;;15.00;10.17;;;5.80;99.90;;;;;;5023173;28;20193;-56
2022/03/02 07:52:25;;;;;;;17.53;10.07;;;5.90;99.90;;;;;;5032922;28;20251;-54
2022/03/02 07:54:57;;;;;;;18.37;9.90;;;6.10;99.90;;;;;;5031951;28;20201;-55
2022/03/02 07:57:25;;;;;;;14.67;9.70;;;6.20;99.90;;;;;;5027101;28;20246;-55
2022/03/02 07:59:54;;;;;;;14.53;9.27;;;6.40;99.90;;;;;;5025758;28;20220;-54
2022/03/02 08:02:24;;;;;;;14.90;9.33;;;6.50;99.90;;;;;;5032426;28;20288;-55
2022/03/02 08:04:53;;;;;;;14.47;9.63;;;6.60;99.90;;;;;;5030807;28;20233;-56
2022/03/02 08:07:21;;;;;;;16.80;9.13;;;6.80;99.90;;;;;;5028574;28;20801;-53
2022/03/02 08:09:51;;;;;;;17.03;9.47;;;7.00;99.90;;;;;;5032467;28;20259;-55
2022/03/02 08:12:21;;;;;;;17.50;9.40;;;7.20;99.90;;;;;;5028344;28;20314;-55
2022/03/02 08:14:49;;;;;;;12.77;9.23;;;7.40;99.90;;;;;;5031063;28;20211;-53
2022/03/02 08:17:17;;;;;;;16.93;9.33;;;7.60;99.90;;;;;;5027922;28;20208;-56
2022/03/02 08:19:46;;;;;;;14.10;8.70;;;7.90;99.90;;;;;;5022177;28;21912;-56
2022/03/02 08:22:15;;;;;;;14.90;9.23;;;8.10;99.90;;;;;;5026710;28;20213;-55
2022/03/02 08:24:50;;;;;;;13.40;8.73;;;8.40;99.90;;;;;;5026650;28;20283;-55
2022/03/02 08:27:17;;;;;;;13.50;8.47;;;8.50;99.90;;;;;;5022625;28;20212;-56
2022/03/02 08:29:53;;;;;;;13.13;9.03;;;8.60;99.90;;;;;;5027624;28;20200;-56
2022/03/02 08:32:21;;;;;;;15.67;9.30;;;8.70;99.90;;;;;;5028068;28;20208;-56
2022/03/02 08:34:49;;;;;;;14.07;9.27;;;8.90;99.90;;;;;;5033119;28;20303;-55
2022/03/02 08:37:20;;;;;;;12.87;9.10;;;9.10;99.90;;;;;;5030948;28;20200;-57
2022/03/02 08:39:47;;;;;;;12.20;8.20;;;9.30;99.90;;;;;;5029071;28;20216;-55
2022/03/02 08:42:14;;;;;;;14.97;9.20;;;9.50;99.90;;;;;;5023099;28;20283;-55
2022/03/02 08:44:47;;;;;;;12.53;9.47;;;9.70;99.90;;;;;;5026687;28;20210;-55
2022/03/02 08:47:14;;;;;;;13.83;9.20;;;10.10;99.90;;;;;;5024046;28;20713;-56
2022/03/02 08:49:42;;;;;;;13.30;8.77;;;9.80;99.90;;;;;;5022219;28;20211;-56
2022/03/02 08:52:09;;;;;;;11.57;8.27;;;9.90;99.90;;;;;;5023182;28;20198;-58
2022/03/02 08:54:46;;;;;;;14.17;8.90;;;10.30;99.90;;;;;;5021400;28;20212;-56
2022/03/02 08:57:13;;;;;;;13.83;8.90;;;10.60;99.90;;;;;;5028744;28;20391;-56
2022/03/02 08:59:41;;;;;;;12.80;8.93;;;10.60;99.90;;;;;;5024927;28;20653;-57
2022/03/02 09:02:09;;;;;;;11.50;8.43;;;11.30;99.90;;;;;;5023703;28;20610;-57
2022/03/02 09:04:38;;;;;;;12.83;9.13;;;11.70;99.90;;;;;;5023088;28;20305;-55
2022/03/02 09:07:06;;;;;;;14.63;8.83;;;12.10;99.90;;;;;;5028429;28;20195;-56
2022/03/02 09:09:33;;;;;;;12.33;8.90;;;11.90;99.90;;;;;;5018584;28;20249;-54
2022/03/02 09:12:00;;;;;;;15.00;9.63;;;12.10;99.90;;;;;;5027485;28;20275;-56
2022/03/02 09:14:26;;;;;;;13.53;8.80;;;12.00;99.90;;;;;;5031212;28;20289;-55
2022/03/02 09:16:53;;;;;;;11.27;7.90;;;11.80;99.90;;;;;;5024529;28;20737;-57
2022/03/02 09:19:21;;;;;;;14.33;9.60;;;11.70;99.90;;;;;;5019479;28;20320;-58
2022/03/02 09:21:49;;;;;;;15.67;8.53;;;12.20;99.90;;;;;;5021562;28;20694;-56
2022/03/02 09:24:17;;;;;;;13.50;8.97;;;12.40;99.90;;;;;;5019992;28;20267;-58
2022/03/02 09:26:45;;;;;;;12.23;8.67;;;12.50;99.90;;;;;;5019739;28;20203;-58
2022/03/02 09:29:15;;;;;;;15.27;8.67;;;12.80;99.90;;;;;;5029906;28;21298;-56
2022/03/02 09:31:45;;;;;;;15.20;10.03;;;12.60;99.90;;;;;;5025175;28;20207;-56
2022/03/02 09:34:14;;;;;;;10.77;8.43;;;12.80;99.90;;;;;;4996707;28;20207;-58
2022/03/02 09:36:42;;;;;;;12.37;8.50;;;12.60;99.90;;;;;;5023737;28;20766;-55
2022/03/02 09:39:10;;;;;;;12.30;8.80;;;13.00;99.90;;;;;;5020218;28;20932;-56
2022/03/02 09:41:49;;;;;;;11.03;8.57;;;13.10;99.90;;;;;;5018537;28;20624;-55
2022/03/02 09:44:21;;;;;;;11.33;8.80;;;12.70;99.90;;;;;;5024642;28;20680;-55
2022/03/02 09:46:51;;;;;;;11.87;8.67;;;12.60;99.90;;;;;;5022403;28;20208;-55
2022/03/02 09:49:22;;;;;;;12.60;9.10;;;12.90;99.90;;;;;;5015474;28;20222;-56
2022/03/02 09:51:58;;;;;;;13.33;8.70;;;13.20;99.90;;;;;;5015560;28;20212;-58
2022/03/02 09:54:26;;;;;;;11.97;9.17;;;13.00;99.90;;;;;;5020125;28;20196;-57
2022/03/02 09:56:55;;;;;;;13.33;9.10;;;13.10;99.90;;;;;;5021212;28;20813;-55
2022/03/02 09:59:25;;;;;;;12.67;8.97;;;13.10;99.90;;;;;;5021042;28;20760;-56
2022/03/02 10:01:52;;;;;;;13.67;9.60;;;12.90;99.90;;;;;;5019486;28;21831;-56
2022/03/02 10:04:22;;;;;;;14.13;9.53;;;12.90;99.90;;;;;;5018718;28;20295;-55
2022/03/02 10:07:26;;;;;;;16.93;11.50;;;13.00;99.90;;;;;;5011300;28;20653;-58
2022/03/02 10:09:51;;;;;;;12.83;8.67;;;12.80;99.90;;;;;;5014623;28;20230;-58
2022/03/02 10:12:20;;;;;;;11.60;8.80;;;12.90;99.90;;;;;;5027811;28;20575;-56
2022/03/02 10:14:49;;;;;;;11.90;9.23;;;13.10;99.90;;;;;;5020574;28;20211;-57
2022/03/02 10:17:20;;;;;;;12.80;9.20;;;13.20;99.90;;;;;;5039955;28;20263;-58
2022/03/02 10:19:54;;;;;;;13.30;8.57;;;12.90;99.90;;;;;;5025370;28;20306;-55
2022/03/02 10:22:39;;;;;;;14.30;8.67;;;13.00;99.90;;;;;;5016145;28;20668;-56
2022/03/02 10:25:12;;;;;;;14.70;9.23;;;13.00;99.90;;;;;;5027415;28;20208;-58
2022/03/02 10:28:19;;;;;;;12.07;9.13;;;13.10;99.90;;;;;;5012276;28;20837;-58
2022/03/02 10:30:55;;;;;;;13.80;9.10;;;12.60;99.90;;;;;;5029867;28;20210;-56
2022/03/02 10:33:25;;;;;;;14.17;8.63;;;12.70;99.90;;;;;;5025869;28;20215;-56
2022/03/02 10:36:06;;;;;;;13.80;8.70;;;12.60;99.90;;;;;;5027677;28;20244;-54
2022/03/02 10:38:38;;;;;;;15.77;9.40;;;12.60;99.90;;;;;;5025563;28;20979;-57
2022/03/02 10:41:08;;;;;;;13.20;9.27;;;12.60;99.90;;;;;;5028920;28;20744;-57
2022/03/02 10:44:03;;;;;;;14.83;9.13;;;12.60;99.90;;;;;;5014472;28;20691;-58
2022/03/02 10:46:31;;;;;;;15.20;9.50;;;12.90;99.90;;;;;;5031020;28;20215;-56
2022/03/02 10:49:19;;;;;;;13.13;8.90;;;12.70;99.90;;;;;;5027118;28;20211;-57
2022/03/02 10:51:47;;;;;;;14.47;8.73;;;12.50;99.90;;;;;;5023110;28;20580;-57
2022/03/02 10:54:23;;;;;;;12.20;8.80;;;12.50;99.90;;;;;;5026854;28;20594;-55
2022/03/02 10:56:53;;;;;;;12.73;9.37;;;12.80;99.90;;;;;;5027182;28;20324;-56
2022/03/02 10:59:24;;;;;;;15.90;9.53;;;12.60;99.90;;;;;;5028845;28;20705;-56
2022/03/02 11:01:53;;;;;;;13.60;9.03;;;12.30;99.90;;;;;;5028751;28;20586;-57
2022/03/02 11:04:22;;;;;;;13.07;8.60;;;12.40;99.90;;;;;;5027540;28;20211;-55
2022/03/02 11:06:50;;;;;;;15.20;9.10;;;12.50;99.90;;;;;;5012109;28;20298;-55
2022/03/02 11:09:37;;;;;;;14.57;9.67;;;12.70;99.90;;;;;;5022617;28;20238;-56
2022/03/02 11:12:07;;;;;;;15.03;9.47;;;13.00;99.90;;;;;;5013343;28;20632;-55
2022/03/02 11:14:34;;;;;;;11.60;8.30;;;12.80;99.90;;;;;;5017358;28;20203;-55
2022/03/02 11:17:14;;;;;;;13.63;9.47;;;12.80;99.90;;;;;;5015853;28;20790;-56
2022/03/02 11:19:46;;;;;;;11.50;8.73;;;12.70;99.90;;;;;;5018038;28;20223;-60
2022/03/02 11:22:16;;;;;;;13.07;8.50;;;12.80;99.90;;;;;;5026977;28;20250;-58
2022/03/02 11:24:45;;;;;;;17.47;9.30;;;12.70;99.90;;;;;;5024510;28;20206;-56
2022/03/02 11:27:36;;;;;;;14.63;8.37;;;13.00;99.90;;;;;;5024003;28;20351;-57
2022/03/02 11:30:16;;;;;;;10.43;7.97;;;13.30;99.90;;;;;;5018481;28;20253;-62
2022/03/02 11:32:45;;;;;;;15.63;8.83;;;13.40;99.90;;;;;;5025233;28;20202;-63
2022/03/02 11:35:19;;;;;;;11.30;8.47;;;13.50;99.90;;;;;;5015964;28;20210;-63
2022/03/02 11:37:57;;;;;;;13.70;8.67;;;13.70;99.90;;;;;;5012361;28;20797;-57
2022/03/02 11:40:39;;;;;;;10.47;7.80;;;13.40;99.90;;;;;;5022536;28;20205;-61
2022/03/02 11:43:33;;;;;;;12.57;8.40;;;13.00;99.90;;;;;;5025285;28;20207;-60
2022/03/02 11:46:03;;;;;;;13.13;8.80;;;13.60;99.90;;;;;;5022787;28;20586;-56
2022/03/02 11:48:36;;;;;;;11.00;8.23;;;13.50;99.90;;;;;;5030298;28;20266;-57
2022/03/02 11:51:09;;;;;;;13.13;8.37;;;13.20;99.90;;;;;;5016920;28;20536;-57
2022/03/02 11:53:50;;;;;;;13.67;8.57;;;13.30;99.90;;;;;;5025046;28;20199;-62
2022/03/02 11:56:19;;;;;;;12.70;8.93;;;13.10;99.90;;;;;;5017555;28;20663;-61
2022/03/02 11:59:08;;;;;;;12.27;8.77;;;13.30;99.90;;;;;;5021299;28;20668;-62
2022/03/02 12:01:45;;;;;;;16.83;8.53;;;13.60;99.90;;;;;;5013291;28;20416;-57
2022/03/02 12:04:31;;;;;;;12.83;8.00;;;13.50;99.90;;;;;;5024491;28;20645;-55
2022/03/02 12:07:01;;;;;;;14.53;9.27;;;13.90;99.90;;;;;;5013589;28;20694;-56
2022/03/02 12:09:30;;;;;;;15.63;9.27;;;13.90;99.90;;;;;;5014658;28;20236;-55
2022/03/02 12:12:10;;;;;;;15.23;9.03;;;14.20;99.90;;;;;;5015612;28;20621;-59
2022/03/02 12:14:57;;;;;;;12.50;9.00;;;14.20;99.90;;;;;;5020083;28;20200;-55
2022/03/02 12:17:30;;;;;;;10.60;8.30;;;14.30;99.90;;;;;;5036954;28;20263;-57
2022/03/02 12:20:05;;;;;;;13.80;9.17;;;14.50;99.90;;;;;;5018129;28;20210;-56
2022/03/02 12:22:43;;;;;;;11.77;8.43;;;14.60;99.90;;;;;;5025314;28;20205;-56
2022/03/02 12:25:22;;;;;;;12.20;9.53;;;15.10;99.90;;;;;;5025447;28;20246;-55
2022/03/02 12:28:05;;;;;;;11.07;8.77;;;14.60;99.90;;;;;;5023083;28;20756;-57
2022/03/02 12:30:34;;;;;;;10.93;7.70;;;15.10;99.90;;;;;;5022420;28;20223;-56
2022/03/02 12:33:05;;;;;;;15.03;8.57;;;15.20;99.90;;;;;;5019361;28;20979;-58
2022/03/02 12:35:32;;;;;;;12.60;9.03;;;15.10;99.90;;;;;;5028223;28;20207;-57
2022/03/02 12:38:03;;;;;;;11.43;8.40;;;15.20;99.90;;;;;;5016950;28;20224;-56
2022/03/02 12:40:39;;;;;;;14.57;9.50;;;15.60;99.90;;;;;;5018511;28;20236;-55
2022/03/02 12:43:13;;;;;;;12.13;8.30;;;15.90;99.90;;;;;;5003659;28;20202;-58
2022/03/02 12:45:45;;;;;;;11.10;8.67;;;15.30;99.90;;;;;;5016856;28;20216;-59
2022/03/02 12:48:15;;;;;;;10.63;7.73;;;15.30;99.90;;;;;;5028093;28;20213;-59
2022/03/02 12:50:44;;;;;;;12.17;8.20;;;15.40;99.90;;;;;;5015349;28;20256;-56
2022/03/02 12:53:13;;;;;;;12.60;7.57;;;15.50;99.90;;;;;;5017102;28;20291;-55
2022/03/02 12:55:42;;;;;;;9.07;7.13;;;15.70;99.90;;;;;;5014202;28;20674;-59